createdAt,value
2022-11-17T00:00:42.479Z,11.28
2022-11-17T00:03:14.663Z,11.25
2022-11-17T00:05:42.585Z,11.26
2022-11-17T00:08:10.734Z,11.22
2022-11-17T00:10:40.087Z,11.40
2022-11-17T00:13:25.604Z,11.36
2022-11-17T00:15:53.614Z,11.26
2022-11-17T00:18:39.642Z,11.31
2022-11-17T00:21:21.463Z,11.43
2022-11-17T00:23:50.968Z,11.48
2022-11-17T00:26:23.138Z,11.36
2022-11-17T00:28:53.657Z,11.29
2022-11-17T00:31:39.916Z,11.36
2022-11-17T00:34:08.190Z,11.25
2022-11-17T00:36:39.181Z,11.21
2022-11-17T00:39:07.755Z,11.31
2022-11-17T00:41:37.755Z,11.25
2022-11-17T00:44:06.469Z,11.33
2022-11-17T00:46:35.080Z,11.16
2022-11-17T00:49:03.029Z,11.23
2022-11-17T00:51:31.540Z,11.27
2022-11-17T00:53:59.859Z,11.25
2022-11-17T00:56:28.242Z,11.30
2022-11-17T00:58:57.723Z,11.36
2022-11-17T01:01:26.160Z,11.41
2022-11-17T01:04:02.972Z,11.52
2022-11-17T01:06:33.515Z,11.43
2022-11-17T01:09:02.286Z,11.47
2022-11-17T01:11:30.381Z,11.54
2022-11-17T01:14:01.365Z,11.39
2022-11-17T01:16:31.027Z,11.38
2022-11-17T01:19:02.915Z,11.36
2022-11-17T01:21:32.760Z,11.29
2022-11-17T01:24:02.538Z,11.23
2022-11-17T01:26:33.175Z,11.23
2022-11-17T01:29:03.294Z,11.12
2022-11-17T01:31:33.079Z,11.10
2022-11-17T01:34:01.164Z,11.09
2022-11-17T01:36:30.677Z,11.02
2022-11-17T01:38:58.624Z,10.89
2022-11-17T01:41:28.779Z,11.00
2022-11-17T01:43:58.806Z,10.91
2022-11-17T01:46:34.333Z,10.90
2022-11-17T01:49:08.069Z,10.94
2022-11-17T01:51:39.696Z,11.00
2022-11-17T01:54:09.088Z,11.03
2022-11-17T01:56:41.718Z,11.00
2022-11-17T01:59:20.005Z,11.06
2022-11-17T02:01:56.759Z,11.11
2022-11-17T02:04:27.582Z,11.10
2022-11-17T02:07:01.740Z,11.13
2022-11-17T02:09:30.576Z,11.12
2022-11-17T02:11:59.894Z,11.18
2022-11-17T02:14:27.778Z,11.13
2022-11-17T02:16:59.943Z,11.00
2022-11-17T02:19:36.840Z,10.97
2022-11-17T02:22:27.490Z,10.88
2022-11-17T02:25:08.998Z,11.05
2022-11-17T02:27:56.479Z,11.07
2022-11-17T02:30:24.836Z,10.93
2022-11-17T02:33:02.761Z,10.98
2022-11-17T02:35:41.277Z,11.01
2022-11-17T02:38:24.756Z,11.08
2022-11-17T02:40:58.792Z,11.09
2022-11-17T02:43:52.836Z,11.08
2022-11-17T02:46:24.391Z,11.11
2022-11-17T02:48:58.497Z,11.14
2022-11-17T02:51:26.592Z,11.03
2022-11-17T02:53:57.390Z,10.82
2022-11-17T02:56:25.466Z,10.91
2022-11-17T02:59:01.395Z,10.92
2022-11-17T03:01:51.111Z,10.95
2022-11-17T03:04:30.921Z,10.92
2022-11-17T03:07:09.668Z,10.83
2022-11-17T03:09:47.256Z,10.84
2022-11-17T03:12:23.652Z,10.88
2022-11-17T03:15:05.514Z,10.82
2022-11-17T03:17:41.284Z,10.74
2022-11-17T03:20:15.312Z,10.75
2022-11-17T03:22:48.656Z,10.81
2022-11-17T03:25:21.920Z,10.72
2022-11-17T03:27:54.677Z,10.93
2022-11-17T03:30:25.696Z,10.92
2022-11-17T03:32:59.511Z,10.81
2022-11-17T03:35:30.898Z,10.90
2022-11-17T03:38:05.154Z,10.83
2022-11-17T03:40:37.059Z,10.74
2022-11-17T03:43:09.032Z,10.66
2022-11-17T03:45:44.008Z,10.69
2022-11-17T03:48:17.881Z,10.69
2022-11-17T03:50:52.351Z,10.56
2022-11-17T03:53:20.493Z,10.58
2022-11-17T03:55:58.910Z,10.62
2022-11-17T03:58:31.650Z,10.41
2022-11-17T04:01:03.996Z,10.44
2022-11-17T04:03:34.114Z,10.41
2022-11-17T04:06:02.994Z,10.38
2022-11-17T04:08:31.828Z,10.40
2022-11-17T04:11:17.181Z,10.28
2022-11-17T04:14:01.749Z,10.38
2022-11-17T04:16:31.018Z,10.29
2022-11-17T04:18:59.351Z,10.26
2022-11-17T04:21:27.559Z,10.24
2022-11-17T04:23:56.107Z,10.16
2022-11-17T04:26:41.798Z,10.07
2022-11-17T04:29:09.732Z,10.09
2022-11-17T04:31:38.997Z,10.02
2022-11-17T04:34:07.996Z,10.14
2022-11-17T04:36:39.598Z,10.12
2022-11-17T04:39:08.068Z,10.10
2022-11-17T04:41:53.939Z,10.13
2022-11-17T04:44:25.470Z,10.08
2022-11-17T04:46:55.862Z,10.12
2022-11-17T04:49:25.341Z,10.08
2022-11-17T04:51:54.736Z,10.14
2022-11-17T04:54:24.733Z,10.06
2022-11-17T04:56:53.435Z,10.10
2022-11-17T04:59:21.460Z,9.92
2022-11-17T05:01:49.732Z,10.10
2022-11-17T05:04:41.279Z,10.15
2022-11-17T05:07:09.649Z,10.11
2022-11-17T05:09:37.723Z,10.10
2022-11-17T05:12:23.628Z,10.11
2022-11-17T05:14:52.353Z,10.11
2022-11-17T05:17:19.408Z,9.92
2022-11-17T05:19:49.797Z,9.83
2022-11-17T05:22:37.075Z,9.86
2022-11-17T05:25:06.530Z,9.91
2022-11-17T05:27:35.263Z,9.84
2022-11-17T05:30:04.115Z,9.93
2022-11-17T05:32:32.665Z,9.93
2022-11-17T05:35:02.198Z,9.87
2022-11-17T05:37:30.473Z,9.78
2022-11-17T05:39:58.375Z,9.80
2022-11-17T05:42:26.248Z,9.79
2022-11-17T05:44:54.569Z,9.77
2022-11-17T05:47:22.515Z,9.80
2022-11-17T05:49:50.665Z,9.89
2022-11-17T05:52:20.077Z,9.81
2022-11-17T05:54:47.947Z,9.82
2022-11-17T05:57:22.291Z,9.78
2022-11-17T05:59:54.892Z,9.79
2022-11-17T06:02:28.510Z,9.69
2022-11-17T06:04:56.553Z,9.91
2022-11-17T06:07:26.538Z,9.83
2022-11-17T06:09:55.789Z,9.57
2022-11-17T06:12:23.725Z,9.60
2022-11-17T06:14:51.798Z,9.53
2022-11-17T06:17:24.172Z,9.68
2022-11-17T06:20:00.949Z,9.63
2022-11-17T06:22:30.937Z,9.59
2022-11-17T06:25:01.246Z,9.70
2022-11-17T06:27:31.978Z,9.57
2022-11-17T06:30:03.477Z,9.51
2022-11-17T06:32:34.119Z,9.55
2022-11-17T06:35:04.494Z,9.62
2022-11-17T06:37:33.930Z,9.65
2022-11-17T06:40:01.837Z,9.65
2022-11-17T06:42:47.069Z,9.54
2022-11-17T06:45:15.386Z,9.51
2022-11-17T06:47:43.404Z,9.44
2022-11-17T06:50:11.840Z,9.51
2022-11-17T06:52:41.264Z,9.39
2022-11-17T06:55:09.804Z,9.61
2022-11-17T06:57:37.741Z,9.61
2022-11-17T07:00:07.098Z,9.62
2022-11-17T07:02:36.682Z,9.66
2022-11-17T07:05:05.201Z,9.51
2022-11-17T07:07:33.344Z,9.59
2022-11-17T07:10:05.864Z,9.71
2022-11-17T07:12:34.559Z,9.74
2022-11-17T07:15:02.574Z,9.64
2022-11-17T07:17:31.736Z,9.58
2022-11-17T07:19:59.921Z,9.64
2022-11-17T07:22:28.044Z,9.68
2022-11-17T07:24:56.166Z,9.57
2022-11-17T07:27:25.666Z,9.51
2022-11-17T07:29:53.763Z,9.49
2022-11-17T07:32:22.434Z,9.43
2022-11-17T07:34:50.723Z,9.47
2022-11-17T07:37:18.809Z,9.50
2022-11-17T07:39:46.820Z,9.48
2022-11-17T07:42:14.765Z,9.56
2022-11-17T07:44:44.257Z,9.62
2022-11-17T07:47:12.184Z,9.61
2022-11-17T07:49:40.122Z,9.57
2022-11-17T07:52:08.104Z,9.51
2022-11-17T07:54:36.023Z,9.55
2022-11-17T07:57:04.179Z,9.48
2022-11-17T07:59:32.244Z,9.50
2022-11-17T08:02:01.690Z,9.50
2022-11-17T08:04:29.882Z,9.57
2022-11-17T08:06:58.008Z,9.43
2022-11-17T08:09:26.149Z,9.47
2022-11-17T08:11:54.015Z,9.48
2022-11-17T08:14:21.951Z,9.54
2022-11-17T08:16:50.266Z,9.40
2022-11-17T08:19:19.550Z,9.33
2022-11-17T08:21:47.646Z,9.33
2022-11-17T08:24:16.263Z,9.41
2022-11-17T08:26:44.331Z,9.58
2022-11-17T08:29:12.364Z,9.53
2022-11-17T08:31:45.809Z,9.51
2022-11-17T08:34:13.869Z,9.48
2022-11-17T08:36:43.206Z,9.31
2022-11-17T08:39:11.329Z,9.45
2022-11-17T08:41:39.330Z,9.57
2022-11-17T08:44:07.346Z,9.58
2022-11-17T08:46:35.377Z,9.73
2022-11-17T08:49:03.898Z,9.71
2022-11-17T08:51:31.940Z,9.62
2022-11-17T08:54:01.297Z,9.70
2022-11-17T08:56:29.313Z,9.65
2022-11-17T08:58:57.440Z,9.68
2022-11-17T09:01:25.538Z,9.63
2022-11-17T09:03:53.642Z,9.59
2022-11-17T09:06:21.571Z,9.48
2022-11-17T09:08:50.226Z,9.56
2022-11-17T09:11:20.791Z,9.41
2022-11-17T09:13:48.937Z,9.41
2022-11-17T09:16:17.752Z,9.43
2022-11-17T09:18:46.184Z,9.52
2022-11-17T09:21:17.157Z,9.63
2022-11-17T09:23:45.146Z,9.59
2022-11-17T09:26:15.084Z,9.62
2022-11-17T09:28:45.081Z,9.54
2022-11-17T09:31:15.086Z,9.49
2022-11-17T09:33:44.056Z,9.50
2022-11-17T09:36:13.799Z,9.60
2022-11-17T09:38:42.314Z,9.60
2022-11-17T09:41:35.687Z,9.61
2022-11-17T09:44:14.030Z,9.62
2022-11-17T09:46:55.845Z,9.75
2022-11-17T09:49:36.510Z,9.84
2022-11-17T09:52:12.499Z,9.84
2022-11-17T09:54:44.696Z,9.89
2022-11-17T09:57:26.512Z,9.81
2022-11-17T10:00:06.494Z,9.89
2022-11-17T10:02:35.293Z,9.70
2022-11-17T10:05:03.839Z,9.80
2022-11-17T10:07:35.081Z,9.81
2022-11-17T10:10:06.206Z,9.63
2022-11-17T10:12:40.523Z,9.78
2022-11-17T10:15:23.155Z,9.77
2022-11-17T10:17:51.830Z,9.74
2022-11-17T10:20:20.043Z,9.69
2022-11-17T10:22:49.009Z,9.65
2022-11-17T10:25:24.621Z,9.78
2022-11-17T10:27:55.001Z,9.69
2022-11-17T10:30:25.593Z,9.68
2022-11-17T10:32:55.774Z,9.71
2022-11-17T10:35:26.019Z,9.57
2022-11-17T10:37:56.436Z,9.67
2022-11-17T10:40:26.738Z,9.70
2022-11-17T10:43:05.699Z,9.69
2022-11-17T10:45:35.194Z,9.67
2022-11-17T10:48:11.390Z,9.70
2022-11-17T10:50:51.586Z,9.65
2022-11-17T10:53:25.963Z,9.66
2022-11-17T10:56:01.342Z,9.69
2022-11-17T10:58:31.347Z,9.76
2022-11-17T11:01:03.395Z,9.73
2022-11-17T11:03:33.430Z,9.66
2022-11-17T11:06:07.401Z,9.74
2022-11-17T11:08:52.379Z,9.75
2022-11-17T11:11:42.514Z,9.72
2022-11-17T11:14:19.372Z,9.69
2022-11-17T11:16:51.358Z,9.73
2022-11-17T11:19:21.136Z,9.84
2022-11-17T11:22:04.068Z,9.97
2022-11-17T11:24:43.226Z,9.81
2022-11-17T11:27:29.279Z,9.76
2022-11-17T11:30:03.605Z,9.67
2022-11-17T11:32:43.238Z,9.63
2022-11-17T11:35:43.642Z,9.66
2022-11-17T11:38:28.774Z,9.65
2022-11-17T11:41:09.893Z,9.68
2022-11-17T11:43:46.005Z,9.63
2022-11-17T11:46:18.892Z,9.72
2022-11-17T11:48:50.904Z,9.80
2022-11-17T11:51:22.208Z,9.72
2022-11-17T11:53:55.638Z,9.72
2022-11-17T11:56:28.692Z,9.56
2022-11-17T11:59:03.202Z,9.72
2022-11-17T12:01:38.591Z,9.73
2022-11-17T12:04:23.544Z,9.73
2022-11-17T12:07:01.177Z,9.74
2022-11-17T12:09:45.832Z,9.78
2022-11-17T12:12:16.862Z,9.88
2022-11-17T12:15:13.886Z,9.90
2022-11-17T12:17:59.152Z,9.93
2022-11-17T12:20:56.992Z,9.91
2022-11-17T12:23:55.544Z,9.89
2022-11-17T12:26:26.548Z,9.88
2022-11-17T12:29:27.284Z,9.92
2022-11-17T12:31:56.713Z,9.85
2022-11-17T12:34:27.955Z,9.93
2022-11-17T12:37:26.418Z,10.02
2022-11-17T12:40:00.647Z,9.86
2022-11-17T12:42:29.778Z,9.83
2022-11-17T12:45:19.503Z,9.84
2022-11-17T12:48:05.206Z,9.80
2022-11-17T12:50:51.562Z,9.93
2022-11-17T12:53:51.137Z,10.04
2022-11-17T12:56:38.630Z,9.95
2022-11-17T12:59:40.378Z,10.03
2022-11-17T13:02:23.328Z,10.05
2022-11-17T13:04:56.668Z,10.10
2022-11-17T13:07:26.467Z,10.12
2022-11-17T13:09:57.731Z,10.11
2022-11-17T13:12:27.188Z,10.15
2022-11-17T13:14:56.898Z,10.17
2022-11-17T13:17:28.857Z,10.15
2022-11-17T13:20:01.790Z,10.24
2022-11-17T13:22:30.342Z,10.29
2022-11-17T13:25:14.166Z,10.35
2022-11-17T13:27:50.700Z,10.45
2022-11-17T13:30:25.013Z,10.24
2022-11-17T13:32:53.586Z,10.18
2022-11-17T13:35:24.689Z,10.28
2022-11-17T13:38:07.592Z,10.36
2022-11-17T13:40:38.322Z,10.33
2022-11-17T13:43:08.563Z,10.36
2022-11-17T13:45:36.619Z,10.34
2022-11-17T13:48:04.842Z,10.35
2022-11-17T13:50:38.293Z,10.39
2022-11-17T13:53:22.712Z,10.38
2022-11-17T13:55:53.124Z,10.27
2022-11-17T13:58:26.922Z,10.24
2022-11-17T14:00:57.203Z,10.20
2022-11-17T14:03:33.687Z,10.17
2022-11-17T14:06:01.702Z,10.23
2022-11-17T14:08:32.758Z,10.19
2022-11-17T14:11:22.903Z,10.21
2022-11-17T14:13:53.196Z,10.15
2022-11-17T14:16:28.333Z,10.22
2022-11-17T14:19:02.984Z,10.14
2022-11-17T14:21:32.416Z,10.16
2022-11-17T14:24:07.721Z,10.24
2022-11-17T14:26:42.860Z,10.24
2022-11-17T14:29:12.692Z,10.23
2022-11-17T14:31:40.944Z,10.27
2022-11-17T14:34:09.876Z,10.20
2022-11-17T14:36:39.059Z,10.24
2022-11-17T14:39:14.911Z,10.24
2022-11-17T14:41:45.323Z,10.11
2022-11-17T14:44:13.675Z,10.06
2022-11-17T14:46:41.555Z,10.15
2022-11-17T14:49:10.411Z,10.13
2022-11-17T14:51:38.350Z,10.18
2022-11-17T14:54:06.743Z,10.25
2022-11-17T14:56:35.737Z,10.24
2022-11-17T14:59:05.008Z,10.17
2022-11-17T15:01:38.579Z,10.24
2022-11-17T15:04:27.593Z,10.37
2022-11-17T15:06:56.986Z,10.33
2022-11-17T15:09:25.100Z,10.29
2022-11-17T15:11:53.127Z,10.29
2022-11-17T15:14:22.906Z,10.36
2022-11-17T15:16:51.167Z,10.38
2022-11-17T15:19:19.509Z,10.41
2022-11-17T15:21:48.199Z,10.40
2022-11-17T15:24:16.599Z,10.36
2022-11-17T15:26:44.923Z,10.30
2022-11-17T15:29:15.291Z,10.34
2022-11-17T15:31:44.969Z,10.36
2022-11-17T15:34:18.763Z,10.32
2022-11-17T15:36:48.695Z,10.30
2022-11-17T15:39:17.699Z,10.38
2022-11-17T15:41:46.144Z,10.40
2022-11-17T15:44:14.654Z,10.39
2022-11-17T15:46:47.323Z,10.42
2022-11-17T15:49:15.940Z,10.41
2022-11-17T15:51:44.330Z,10.42
2022-11-17T15:54:16.647Z,10.42
2022-11-17T15:56:47.909Z,10.46
2022-11-17T15:59:16.308Z,10.36
2022-11-17T16:01:46.676Z,10.43
2022-11-17T16:04:16.299Z,10.47
2022-11-17T16:06:45.702Z,10.44
2022-11-17T16:09:15.102Z,10.46
2022-11-17T16:11:43.822Z,10.45
2022-11-17T16:14:12.027Z,10.47
2022-11-17T16:16:40.570Z,10.41
2022-11-17T16:19:10.498Z,10.25
2022-11-17T16:21:38.479Z,10.34
2022-11-17T16:24:08.137Z,10.23
2022-11-17T16:26:37.128Z,10.23
2022-11-17T16:29:06.704Z,10.19
2022-11-17T16:31:36.162Z,10.18
2022-11-17T16:34:06.278Z,10.23
2022-11-17T16:36:38.818Z,10.26
2022-11-17T16:39:08.406Z,10.24
2022-11-17T16:41:38.250Z,10.29
2022-11-17T16:44:09.144Z,10.21
2022-11-17T16:46:37.283Z,10.27
2022-11-17T16:49:07.892Z,10.28
2022-11-17T16:51:37.198Z,10.18
2022-11-17T16:54:07.033Z,10.26
2022-11-17T16:56:35.799Z,10.14
2022-11-17T16:59:04.381Z,10.25
2022-11-17T17:01:34.791Z,10.26
2022-11-17T17:04:06.354Z,10.36
2022-11-17T17:06:37.165Z,10.38
2022-11-17T17:09:08.534Z,10.37
2022-11-17T17:11:37.710Z,10.40
2022-11-17T17:14:08.372Z,10.28
2022-11-17T17:16:38.294Z,10.34
2022-11-17T17:19:08.373Z,10.38
2022-11-17T17:21:37.504Z,10.41
2022-11-17T17:24:07.569Z,10.31
2022-11-17T17:26:36.712Z,10.34
2022-11-17T17:29:05.933Z,10.28
2022-11-17T17:31:35.914Z,10.24
2022-11-17T17:34:05.027Z,10.24
2022-11-17T17:36:34.494Z,10.29
2022-11-17T17:39:03.858Z,10.34
2022-11-17T17:41:34.990Z,10.28
2022-11-17T17:44:05.125Z,10.24
2022-11-17T17:46:36.730Z,10.29
2022-11-17T17:49:05.883Z,10.34
2022-11-17T17:51:38.298Z,10.20
2022-11-17T17:54:07.703Z,10.35
2022-11-17T17:56:37.085Z,10.37
2022-11-17T17:59:05.111Z,10.42
2022-11-17T18:01:34.042Z,10.47
2022-11-17T18:04:04.870Z,10.47
2022-11-17T18:06:36.976Z,10.47
2022-11-17T18:09:05.500Z,10.43
2022-11-17T18:11:33.994Z,10.32
2022-11-17T18:14:04.246Z,10.39
2022-11-17T18:16:34.051Z,10.49
2022-11-17T18:19:03.672Z,10.51
2022-11-17T18:21:32.476Z,10.56
2022-11-17T18:24:03.293Z,10.53
2022-11-17T18:26:33.415Z,10.53
2022-11-17T18:29:04.993Z,10.53
2022-11-17T18:31:34.669Z,10.39
2022-11-17T18:34:05.430Z,10.35
2022-11-17T18:36:34.736Z,10.44
2022-11-17T18:39:03.652Z,10.50
2022-11-17T18:41:33.890Z,10.53
2022-11-17T18:44:04.102Z,10.55
2022-11-17T18:46:34.184Z,10.51
2022-11-17T18:49:02.281Z,10.56
2022-11-17T18:51:34.145Z,10.57
2022-11-17T18:54:03.639Z,10.59
2022-11-17T18:56:34.008Z,10.55
2022-11-17T18:59:06.419Z,10.55
2022-11-17T19:01:35.231Z,10.53
2022-11-17T19:04:03.296Z,10.59
2022-11-17T19:06:32.500Z,10.60
2022-11-17T19:09:02.642Z,10.52
2022-11-17T19:11:33.198Z,10.55
2022-11-17T19:14:05.219Z,10.48
2022-11-17T19:16:42.557Z,10.48
2022-11-17T19:19:13.642Z,10.40
2022-11-17T19:21:42.662Z,10.34
2022-11-17T19:24:11.126Z,10.38
2022-11-17T19:26:39.973Z,10.42
2022-11-17T19:29:17.252Z,10.43
2022-11-17T19:31:47.770Z,10.39
2022-11-17T19:34:17.016Z,10.27
2022-11-17T19:36:45.560Z,10.27
2022-11-17T19:39:17.153Z,10.27
2022-11-17T19:41:47.621Z,10.24
2022-11-17T19:44:17.568Z,10.18
2022-11-17T19:46:46.275Z,10.24
2022-11-17T19:49:14.824Z,10.22
2022-11-17T19:51:43.142Z,10.20
2022-11-17T19:54:13.416Z,10.24
2022-11-17T19:56:42.032Z,10.28
2022-11-17T19:59:15.714Z,10.25
2022-11-17T20:01:46.861Z,10.31
2022-11-17T20:04:15.185Z,10.38
2022-11-17T20:06:43.415Z,10.34
2022-11-17T20:09:13.755Z,10.35
2022-11-17T20:11:42.746Z,10.34
2022-11-17T20:14:10.929Z,10.42
2022-11-17T20:16:39.525Z,10.35
2022-11-17T20:19:10.085Z,10.28
2022-11-17T20:21:38.642Z,10.25
2022-11-17T20:24:07.560Z,10.25
2022-11-17T20:26:40.591Z,10.29
2022-11-17T20:29:09.684Z,10.19
2022-11-17T20:31:38.533Z,10.27
2022-11-17T20:34:06.941Z,10.24
2022-11-17T20:36:36.920Z,10.25
2022-11-17T20:39:06.689Z,10.19
2022-11-17T20:41:35.751Z,10.26
2022-11-17T20:44:04.217Z,10.29
2022-11-17T20:46:32.241Z,10.36
2022-11-17T20:49:00.482Z,10.17
2022-11-17T20:51:28.726Z,10.24
2022-11-17T20:53:58.330Z,10.29
2022-11-17T20:56:26.996Z,10.36
2022-11-17T20:58:55.512Z,10.26
2022-11-17T21:01:24.480Z,10.27
2022-11-17T21:03:53.287Z,10.20
2022-11-17T21:06:23.055Z,10.28
2022-11-17T21:08:54.716Z,10.31
2022-11-17T21:11:43.066Z,10.34
2022-11-17T21:14:13.606Z,10.29
2022-11-17T21:16:45.667Z,10.35
2022-11-17T21:19:14.533Z,10.41
2022-11-17T21:21:44.224Z,10.31
2022-11-17T21:24:12.765Z,10.45
2022-11-17T21:26:42.463Z,10.38
2022-11-17T21:29:11.407Z,10.42
2022-11-17T21:31:40.148Z,10.38
2022-11-17T21:34:08.652Z,10.32
2022-11-17T21:36:37.170Z,10.38
2022-11-17T21:39:05.714Z,10.38
2022-11-17T21:41:36.249Z,10.47
2022-11-17T21:44:05.940Z,10.50
2022-11-17T21:46:36.342Z,10.50
2022-11-17T21:49:05.486Z,10.52
2022-11-17T21:51:34.946Z,10.52
2022-11-17T21:54:05.263Z,10.50
2022-11-17T21:56:33.823Z,10.49
2022-11-17T21:59:03.861Z,10.51
2022-11-17T22:01:34.394Z,10.55
2022-11-17T22:04:02.846Z,10.51
2022-11-17T22:06:46.552Z,10.59
2022-11-17T22:09:14.806Z,10.53
2022-11-17T22:11:43.212Z,10.57
2022-11-17T22:14:13.342Z,10.56
2022-11-17T22:16:43.277Z,10.59
2022-11-17T22:19:12.850Z,10.64
2022-11-17T22:21:41.448Z,10.53
2022-11-17T22:24:12.594Z,10.55
2022-11-17T22:26:42.302Z,10.48
2022-11-17T22:29:14.347Z,10.49
2022-11-17T22:31:43.138Z,10.46
2022-11-17T22:34:11.132Z,10.43
2022-11-17T22:36:39.210Z,10.43
2022-11-17T22:39:07.496Z,10.34
2022-11-17T22:41:37.353Z,10.41
2022-11-17T22:44:06.332Z,10.41
2022-11-17T22:46:36.328Z,10.30
2022-11-17T22:49:04.469Z,10.40
2022-11-17T22:51:49.688Z,10.38
2022-11-17T22:54:17.616Z,10.42
2022-11-17T22:56:48.065Z,10.42
2022-11-17T22:59:16.535Z,10.44
2022-11-17T23:01:44.573Z,10.45
2022-11-17T23:04:12.894Z,10.49
2022-11-17T23:06:40.793Z,10.46
2022-11-17T23:09:08.842Z,10.37
2022-11-17T23:11:38.387Z,10.43
2022-11-17T23:14:11.600Z,10.42
2022-11-17T23:16:40.170Z,10.44
2022-11-17T23:19:09.743Z,10.45
2022-11-17T23:21:37.602Z,10.48
2022-11-17T23:24:05.967Z,10.49
2022-11-17T23:26:33.892Z,10.45
2022-11-17T23:29:01.897Z,10.44
2022-11-17T23:31:31.343Z,10.45
2022-11-17T23:33:59.372Z,10.39
2022-11-17T23:36:27.310Z,10.40
2022-11-17T23:38:56.558Z,10.38
2022-11-17T23:41:24.653Z,10.42
2022-11-17T23:43:54.747Z,10.40
2022-11-17T23:46:25.378Z,10.43
2022-11-17T23:48:56.251Z,10.44
2022-11-17T23:51:29.733Z,10.45
2022-11-17T23:54:01.107Z,10.46
2022-11-17T23:56:33.557Z,10.34
2022-11-17T23:59:01.886Z,10.39
